createdAt,value
2023-03-15T00:01:49.719Z,100299.03
2023-03-15T00:04:16.356Z,100309.78
2023-03-15T00:06:42.854Z,100311.44
2023-03-15T00:09:09.362Z,100318.97
2023-03-15T00:11:35.853Z,100313.69
2023-03-15T00:14:02.602Z,100321.94
2023-03-15T00:16:29.403Z,100318.84
2023-03-15T00:18:56.227Z,100321.41
2023-03-15T00:21:23.413Z,100329.28
2023-03-15T00:23:50.012Z,100338.38
2023-03-15T00:26:16.753Z,100331.72
2023-03-15T00:28:43.567Z,100334.50
2023-03-15T00:31:15.968Z,100334.63
2023-03-15T00:33:42.772Z,100337.00
2023-03-15T00:36:10.075Z,100346.97
2023-03-15T00:38:38.592Z,100343.84
2023-03-15T00:41:06.214Z,100334.56
2023-03-15T00:43:33.672Z,100347.38
2023-03-15T00:46:00.288Z,100353.63
2023-03-15T00:48:26.877Z,100354.31
2023-03-15T00:51:12.095Z,100356.56
2023-03-15T00:53:40.837Z,100367.84
2023-03-15T00:56:10.266Z,100365.91
2023-03-15T00:58:37.076Z,100354.50
2023-03-15T01:01:08.961Z,100369.00
2023-03-15T01:03:38.902Z,100375.50
2023-03-15T01:06:10.857Z,100379.94
2023-03-15T01:08:37.523Z,100379.81
2023-03-15T01:11:07.148Z,100383.88
2023-03-15T01:13:34.431Z,100390.25
2023-03-15T01:16:01.118Z,100400.19
2023-03-15T01:18:27.582Z,100398.09
2023-03-15T01:20:54.181Z,100400.44
2023-03-15T01:23:20.841Z,100432.38
2023-03-15T01:25:47.656Z,100444.44
2023-03-15T01:28:14.281Z,100435.84
2023-03-15T01:30:40.761Z,100443.91
2023-03-15T01:33:07.273Z,100444.19
2023-03-15T01:35:33.758Z,100441.13
2023-03-15T01:38:00.246Z,100447.00
2023-03-15T01:40:26.696Z,100463.09
2023-03-15T01:43:11.735Z,100474.59
2023-03-15T01:46:00.104Z,100478.31
2023-03-15T01:48:30.098Z,100474.91
2023-03-15T01:50:57.316Z,100478.53
2023-03-15T01:53:26.446Z,100494.69
2023-03-15T01:55:54.631Z,100500.44
2023-03-15T01:58:22.697Z,100489.94
2023-03-15T02:00:49.214Z,100500.59
2023-03-15T02:03:22.256Z,100493.53
2023-03-15T02:05:55.375Z,100467.06
2023-03-15T02:08:23.111Z,100477.03
2023-03-15T02:10:52.128Z,100467.75
2023-03-15T02:13:24.631Z,100475.59
2023-03-15T02:15:53.463Z,100491.47
2023-03-15T02:18:20.815Z,100497.38
2023-03-15T02:21:15.785Z,100509.41
2023-03-15T02:23:44.232Z,100518.72
2023-03-15T02:26:25.991Z,100510.84
2023-03-15T02:28:53.926Z,100514.00
2023-03-15T02:31:21.407Z,100527.91
2023-03-15T02:33:51.630Z,100536.81
2023-03-15T02:36:20.949Z,100536.25
2023-03-15T02:38:48.525Z,100544.78
2023-03-15T02:41:19.097Z,100537.63
2023-03-15T02:43:47.264Z,100553.16
2023-03-15T02:46:14.203Z,100544.59
2023-03-15T02:48:41.714Z,100557.50
2023-03-15T02:51:08.192Z,100551.34
2023-03-15T02:53:34.684Z,100553.84
2023-03-15T02:56:01.157Z,100557.59
2023-03-15T02:58:27.662Z,100564.03
2023-03-15T03:00:54.217Z,100573.94
2023-03-15T03:03:21.132Z,100576.63
2023-03-15T03:05:47.580Z,100586.66
2023-03-15T03:08:16.477Z,100596.06
2023-03-15T03:10:43.382Z,100594.97
2023-03-15T03:13:09.912Z,100595.63
2023-03-15T03:15:36.454Z,100589.63
2023-03-15T03:18:03.171Z,100584.41
2023-03-15T03:20:29.620Z,100571.91
2023-03-15T03:22:56.122Z,100566.84
2023-03-15T03:25:26.952Z,100562.94
2023-03-15T03:27:57.128Z,100572.75
2023-03-15T03:30:24.477Z,100575.38
2023-03-15T03:32:51.348Z,100584.06
2023-03-15T03:35:17.846Z,100584.28
2023-03-15T03:37:44.323Z,100575.84
2023-03-15T03:40:11.625Z,100571.13
2023-03-15T03:42:38.193Z,100576.50
2023-03-15T03:45:05.031Z,100583.50
2023-03-15T03:47:31.564Z,100588.53
2023-03-15T03:49:58.009Z,100601.41
2023-03-15T03:52:24.600Z,100609.63
2023-03-15T03:54:51.097Z,100619.88
2023-03-15T03:57:17.629Z,100618.94
2023-03-15T03:59:44.100Z,100634.31
2023-03-15T04:02:10.749Z,100645.16
2023-03-15T04:04:41.420Z,100652.88
2023-03-15T04:07:08.284Z,100658.66
2023-03-15T04:09:37.553Z,100666.22
2023-03-15T04:12:05.475Z,100654.34
2023-03-15T04:14:32.324Z,100665.94
2023-03-15T04:16:59.111Z,100666.38
2023-03-15T04:19:25.705Z,100663.69
2023-03-15T04:21:52.496Z,100654.22
2023-03-15T04:24:18.991Z,100658.66
2023-03-15T04:26:45.449Z,100661.50
2023-03-15T04:29:12.461Z,100652.13
2023-03-15T04:31:39.007Z,100658.28
2023-03-15T04:34:05.848Z,100664.06
2023-03-15T04:36:32.466Z,100663.19
2023-03-15T04:39:05.972Z,100667.03
2023-03-15T04:41:34.820Z,100676.31
2023-03-15T04:44:03.614Z,100675.19
2023-03-15T04:46:32.274Z,100685.53
2023-03-15T04:48:59.028Z,100688.84
2023-03-15T04:51:25.502Z,100690.50
2023-03-15T04:53:52.085Z,100694.47
2023-03-15T04:56:18.663Z,100693.84
2023-03-15T04:58:45.151Z,100684.66
2023-03-15T05:01:12.009Z,100705.03
2023-03-15T05:03:38.613Z,100709.25
2023-03-15T05:06:08.228Z,100712.91
2023-03-15T05:08:36.334Z,100704.75
2023-03-15T05:11:04.184Z,100705.50
2023-03-15T05:13:30.710Z,100710.66
2023-03-15T05:15:57.298Z,100717.66
2023-03-15T05:18:24.252Z,100728.34
2023-03-15T05:20:51.034Z,100723.75
2023-03-15T05:23:17.500Z,100736.59
2023-03-15T05:25:43.975Z,100742.75
2023-03-15T05:28:10.438Z,100741.94
2023-03-15T05:30:36.883Z,100737.81
2023-03-15T05:33:05.174Z,100746.66
2023-03-15T05:35:31.673Z,100754.31
2023-03-15T05:37:58.189Z,100751.47
2023-03-15T05:40:24.697Z,100753.03
2023-03-15T05:42:51.146Z,100758.81
2023-03-15T05:45:17.720Z,100757.53
2023-03-15T05:47:44.188Z,100765.19
2023-03-15T05:50:11.080Z,100774.66
2023-03-15T05:52:37.584Z,100773.06
2023-03-15T05:55:04.423Z,100776.69
2023-03-15T05:57:31.411Z,100783.19
2023-03-15T05:59:57.968Z,100788.13
2023-03-15T06:02:24.725Z,100797.16
2023-03-15T06:04:51.331Z,100796.56
2023-03-15T06:07:17.896Z,100799.19
2023-03-15T06:09:44.413Z,100811.91
2023-03-15T06:12:10.960Z,100826.44
2023-03-15T06:14:37.485Z,100851.50
2023-03-15T06:17:03.969Z,100858.78
2023-03-15T06:19:30.444Z,100832.31
2023-03-15T06:21:56.917Z,100839.09
2023-03-15T06:24:25.101Z,100841.66
2023-03-15T06:26:51.576Z,100839.38
2023-03-15T06:29:18.104Z,100846.13
2023-03-15T06:31:44.606Z,100855.16
2023-03-15T06:34:11.920Z,100864.91
2023-03-15T06:36:38.754Z,100863.41
2023-03-15T06:39:05.794Z,100866.13
2023-03-15T06:41:32.793Z,100862.00
2023-03-15T06:43:59.296Z,100858.75
2023-03-15T06:46:25.830Z,100864.44
2023-03-15T06:48:52.340Z,100858.03
2023-03-15T06:51:18.801Z,100868.34
2023-03-15T06:53:45.426Z,100874.16
2023-03-15T06:56:12.057Z,100878.59
2023-03-15T06:58:38.555Z,100882.09
2023-03-15T07:01:05.181Z,100890.44
2023-03-15T07:03:31.729Z,100894.03
2023-03-15T07:05:58.176Z,100899.84
2023-03-15T07:08:25.555Z,100899.63
2023-03-15T07:10:52.270Z,100892.72
2023-03-15T07:13:19.476Z,100893.88
2023-03-15T07:15:47.730Z,100898.06
2023-03-15T07:18:14.267Z,100907.81
2023-03-15T07:20:40.713Z,100910.16
2023-03-15T07:23:07.196Z,100914.78
2023-03-15T07:25:44.958Z,100922.31
2023-03-15T07:28:18.774Z,100912.38
2023-03-15T07:30:52.993Z,100904.34
2023-03-15T07:33:22.472Z,100921.56
2023-03-15T07:35:53.566Z,100920.69
2023-03-15T07:38:25.104Z,100926.59
2023-03-15T07:40:51.969Z,100885.38
2023-03-15T07:43:18.875Z,100894.34
2023-03-15T07:45:45.375Z,100906.91
2023-03-15T07:48:11.815Z,100914.00
2023-03-15T07:50:38.660Z,100919.41
2023-03-15T07:53:06.209Z,100925.00
2023-03-15T07:55:34.116Z,100920.56
2023-03-15T07:58:00.975Z,100923.16
2023-03-15T08:00:28.063Z,100922.19
2023-03-15T08:02:54.688Z,100927.75
2023-03-15T08:05:22.073Z,100924.16
2023-03-15T08:07:49.116Z,100923.94
2023-03-15T08:10:16.432Z,100919.16
2023-03-15T08:12:43.168Z,100920.03
2023-03-15T08:15:14.264Z,100927.34
2023-03-15T08:17:41.800Z,100933.88
2023-03-15T08:20:14.921Z,100950.66
2023-03-15T08:22:44.815Z,100953.75
2023-03-15T08:25:13.348Z,100956.03
2023-03-15T08:27:39.956Z,100976.81
2023-03-15T08:30:07.013Z,100977.94
2023-03-15T08:32:33.482Z,100975.72
2023-03-15T08:35:00.179Z,100992.41
2023-03-15T08:37:26.695Z,100986.38
2023-03-15T08:40:00.917Z,100982.47
2023-03-15T08:42:27.940Z,100996.38
2023-03-15T08:44:54.454Z,100992.97
2023-03-15T08:47:20.883Z,101002.44
2023-03-15T08:49:47.340Z,101000.63
2023-03-15T08:52:13.828Z,101004.75
2023-03-15T08:54:40.576Z,100997.16
2023-03-15T08:57:07.057Z,101003.69
2023-03-15T08:59:33.522Z,101010.31
2023-03-15T09:02:01.069Z,101004.00
2023-03-15T09:04:27.792Z,101013.38
2023-03-15T09:06:54.410Z,101013.84
2023-03-15T09:09:20.893Z,101011.69
2023-03-15T09:11:47.338Z,101023.97
2023-03-15T09:14:13.808Z,101017.38
2023-03-15T09:16:40.441Z,101017.44
2023-03-15T09:19:06.967Z,101022.25
2023-03-15T09:21:33.562Z,101024.94
2023-03-15T09:24:00.134Z,101033.16
2023-03-15T09:26:26.640Z,101038.75
2023-03-15T09:28:53.142Z,101035.66
2023-03-15T09:31:19.668Z,101030.66
2023-03-15T09:33:46.646Z,101037.19
2023-03-15T09:36:13.282Z,101041.59
2023-03-15T09:38:41.989Z,101040.41
2023-03-15T09:41:18.321Z,101047.19
2023-03-15T09:44:05.591Z,101056.88
2023-03-15T09:46:42.649Z,101046.47
2023-03-15T09:49:14.338Z,101047.38
2023-03-15T09:51:49.191Z,101053.72
2023-03-15T09:54:19.392Z,101051.00
2023-03-15T09:56:55.258Z,101055.44
2023-03-15T09:59:24.706Z,101053.22
2023-03-15T10:01:53.362Z,101062.22
2023-03-15T10:04:28.187Z,101055.94
2023-03-15T10:06:57.598Z,101067.97
2023-03-15T10:09:26.731Z,101066.50
2023-03-15T10:11:56.263Z,101061.69
2023-03-15T10:14:44.849Z,101061.88
2023-03-15T10:17:13.483Z,101065.53
2023-03-15T10:19:51.942Z,101067.75
2023-03-15T10:22:38.911Z,101075.72
2023-03-15T10:25:05.472Z,101073.16
2023-03-15T10:27:35.252Z,101063.91
2023-03-15T10:30:02.581Z,101058.94
2023-03-15T10:32:31.722Z,101054.63
2023-03-15T10:34:58.874Z,101042.41
2023-03-15T10:37:25.913Z,101058.66
2023-03-15T10:39:58.550Z,101068.28
2023-03-15T10:42:30.482Z,101050.50
2023-03-15T10:44:57.628Z,101050.25
2023-03-15T10:47:25.215Z,101064.75
2023-03-15T10:49:58.841Z,101070.59
2023-03-15T10:52:28.495Z,101069.19
2023-03-15T10:54:58.744Z,101064.00
2023-03-15T10:57:35.269Z,101071.59
2023-03-15T11:00:23.867Z,101076.28
2023-03-15T11:02:52.166Z,101087.75
2023-03-15T11:05:19.774Z,101081.50
2023-03-15T11:07:59.876Z,101081.72
2023-03-15T11:10:28.957Z,101073.97
2023-03-15T11:13:12.208Z,101078.66
2023-03-15T11:15:41.175Z,101081.06
2023-03-15T11:18:17.707Z,101100.00
2023-03-15T11:20:45.431Z,101106.97
2023-03-15T11:23:18.679Z,101109.16
2023-03-15T11:25:45.226Z,101110.34
2023-03-15T11:28:32.415Z,101107.06
2023-03-15T11:31:04.641Z,101107.94
2023-03-15T11:34:09.487Z,101119.84
2023-03-15T11:36:39.307Z,101111.78
2023-03-15T11:39:06.375Z,101125.69
2023-03-15T11:41:43.867Z,101123.34
2023-03-15T11:44:16.497Z,101129.63
2023-03-15T11:46:46.448Z,101129.28
2023-03-15T11:49:54.549Z,101123.41
2023-03-15T11:52:23.894Z,101121.75
2023-03-15T11:54:52.169Z,101127.06
2023-03-15T11:57:38.127Z,101115.56
2023-03-15T12:00:21.744Z,101122.00
2023-03-15T12:02:49.662Z,101129.88
2023-03-15T12:05:42.410Z,101128.97
2023-03-15T12:08:25.260Z,101127.31
2023-03-15T12:10:52.077Z,101126.22
2023-03-15T12:13:32.071Z,101135.41
2023-03-15T12:15:59.255Z,101128.78
2023-03-15T12:18:29.848Z,101137.97
2023-03-15T12:21:19.735Z,101131.28
2023-03-15T12:23:58.876Z,101136.28
2023-03-15T12:26:31.576Z,101137.25
2023-03-15T12:29:01.090Z,101143.00
2023-03-15T12:31:43.213Z,101139.19
2023-03-15T12:34:15.770Z,101135.50
2023-03-15T12:36:47.216Z,101173.22
2023-03-15T12:39:16.827Z,101163.72
2023-03-15T12:41:46.522Z,101166.72
2023-03-15T12:44:22.296Z,101167.97
2023-03-15T12:46:48.732Z,101181.50
2023-03-15T12:49:24.451Z,101159.19
2023-03-15T12:51:59.174Z,101164.72
2023-03-15T12:54:31.889Z,101178.56
2023-03-15T12:57:00.727Z,101192.41
2023-03-15T12:59:36.344Z,101195.16
2023-03-15T13:02:16.968Z,101236.97
2023-03-15T13:04:43.459Z,101239.25
2023-03-15T13:07:37.010Z,101233.19
2023-03-15T13:10:24.720Z,101241.44
2023-03-15T13:13:23.440Z,101245.09
2023-03-15T13:16:02.199Z,101239.06
2023-03-15T13:18:30.314Z,101224.06
2023-03-15T13:21:17.888Z,101207.59
2023-03-15T13:23:50.284Z,101208.03
2023-03-15T13:26:29.223Z,101196.59
2023-03-15T13:29:02.574Z,101184.91
2023-03-15T13:31:31.577Z,101195.84
2023-03-15T13:34:11.462Z,101200.56
2023-03-15T13:36:48.177Z,101194.88
2023-03-15T13:39:24.076Z,101191.53
2023-03-15T13:42:06.123Z,101193.38
2023-03-15T13:44:33.621Z,101189.91
2023-03-15T13:47:00.669Z,101200.78
2023-03-15T13:49:32.569Z,101200.38
2023-03-15T13:51:59.429Z,101205.59
2023-03-15T13:54:29.034Z,101190.25
2023-03-15T13:56:55.677Z,101204.59
2023-03-15T13:59:32.604Z,101201.06
2023-03-15T14:01:59.397Z,101210.66
2023-03-15T14:04:26.246Z,101203.00
2023-03-15T14:07:04.307Z,101203.09
2023-03-15T14:09:30.907Z,101211.78
2023-03-15T14:12:06.058Z,101212.38
2023-03-15T14:14:37.512Z,101221.59
2023-03-15T14:17:09.037Z,101205.47
2023-03-15T14:19:35.932Z,101216.13
2023-03-15T14:22:15.706Z,101209.41
2023-03-15T14:24:43.870Z,101204.94
2023-03-15T14:27:25.797Z,101218.22
2023-03-15T14:29:55.149Z,101214.66
2023-03-15T14:32:31.022Z,101205.47
2023-03-15T14:35:05.609Z,101214.69
2023-03-15T14:37:35.458Z,101199.75
2023-03-15T14:40:21.353Z,101207.91
2023-03-15T14:42:49.268Z,101217.53
2023-03-15T14:45:17.664Z,101216.75
2023-03-15T14:47:56.336Z,101237.72
2023-03-15T14:50:27.259Z,101229.25
2023-03-15T14:52:54.370Z,101232.56
2023-03-15T14:55:28.263Z,101232.84
2023-03-15T14:57:54.851Z,101229.38
2023-03-15T15:00:21.702Z,101242.16
2023-03-15T15:02:54.811Z,101242.50
2023-03-15T15:05:29.463Z,101250.56
2023-03-15T15:08:04.882Z,101249.81
2023-03-15T15:10:32.485Z,101241.28
2023-03-15T15:13:05.875Z,101246.00
2023-03-15T15:15:47.355Z,101257.38
2023-03-15T15:18:20.690Z,101254.97
2023-03-15T15:20:47.434Z,101265.50
2023-03-15T15:23:19.055Z,101266.97
2023-03-15T15:25:46.835Z,101266.91
2023-03-15T15:28:27.336Z,101273.72
2023-03-15T15:31:00.625Z,101277.56
2023-03-15T15:33:28.155Z,101268.03
2023-03-15T15:35:56.135Z,101274.88
2023-03-15T15:38:24.949Z,101270.63
2023-03-15T15:40:51.467Z,101279.75
2023-03-15T15:43:19.019Z,101285.84
2023-03-15T15:45:45.510Z,101289.56
2023-03-15T15:48:11.959Z,101294.91
2023-03-15T15:50:38.516Z,101300.66
2023-03-15T15:53:06.018Z,101295.03
2023-03-15T15:55:36.672Z,101301.06
2023-03-15T15:58:03.944Z,101297.59
2023-03-15T16:00:30.848Z,101300.88
2023-03-15T16:02:58.302Z,101299.28
2023-03-15T16:05:27.049Z,101306.88
2023-03-15T16:07:54.898Z,101306.47
2023-03-15T16:10:26.712Z,101307.19
2023-03-15T16:12:54.721Z,101320.50
2023-03-15T16:15:21.505Z,101317.63
2023-03-15T16:17:48.069Z,101323.63
2023-03-15T16:20:16.644Z,101325.00
2023-03-15T16:22:46.257Z,101324.31
2023-03-15T16:25:25.472Z,101341.88
2023-03-15T16:27:53.540Z,101336.69
2023-03-15T16:30:26.104Z,101343.88
2023-03-15T16:32:55.961Z,101344.94
2023-03-15T16:35:40.734Z,101345.47
2023-03-15T16:38:13.619Z,101352.25
2023-03-15T16:40:41.791Z,101355.06
2023-03-15T16:43:11.119Z,101365.53
2023-03-15T16:45:37.650Z,101361.91
2023-03-15T16:48:04.763Z,101361.19
2023-03-15T16:50:32.476Z,101373.88
2023-03-15T16:53:01.611Z,101366.94
2023-03-15T16:55:30.000Z,101371.84
2023-03-15T16:57:57.220Z,101378.34
2023-03-15T17:00:24.638Z,101383.34
2023-03-15T17:02:52.262Z,101386.22
2023-03-15T17:05:21.665Z,101383.78
2023-03-15T17:07:49.310Z,101379.19
2023-03-15T17:10:27.579Z,101391.72
2023-03-15T17:12:55.299Z,101389.31
2023-03-15T17:15:24.510Z,101399.06
2023-03-15T17:17:51.892Z,101399.00
2023-03-15T17:20:21.871Z,101400.53
2023-03-15T17:22:49.558Z,101408.56
2023-03-15T17:25:17.327Z,101412.09
2023-03-15T17:27:44.897Z,101395.34
2023-03-15T17:30:19.046Z,101406.88
2023-03-15T17:32:46.567Z,101415.38
2023-03-15T17:35:14.011Z,101413.31
2023-03-15T17:37:44.658Z,101419.75
2023-03-15T17:40:22.146Z,101422.22
2023-03-15T17:42:49.510Z,101422.47
2023-03-15T17:45:21.381Z,101433.69
2023-03-15T17:47:51.747Z,101430.06
2023-03-15T17:50:21.014Z,101425.16
2023-03-15T17:52:55.936Z,101423.91
2023-03-15T17:55:24.748Z,101437.69
2023-03-15T17:57:55.203Z,101430.75
2023-03-15T18:00:22.802Z,101433.19
2023-03-15T18:02:55.267Z,101439.41
2023-03-15T18:05:25.299Z,101443.88
2023-03-15T18:07:58.691Z,101450.69
2023-03-15T18:10:28.145Z,101445.34
2023-03-15T18:12:54.732Z,101445.38
2023-03-15T18:15:23.554Z,101450.00
2023-03-15T18:17:51.220Z,101451.56
2023-03-15T18:20:18.615Z,101461.66
2023-03-15T18:22:45.418Z,101453.59
2023-03-15T18:25:24.474Z,101457.88
2023-03-15T18:27:52.538Z,101464.50
2023-03-15T18:30:22.371Z,101458.75
2023-03-15T18:32:49.973Z,101463.38
2023-03-15T18:35:19.374Z,101460.19
2023-03-15T18:37:46.346Z,101458.38
2023-03-15T18:40:17.576Z,101464.09
2023-03-15T18:42:44.883Z,101461.03
2023-03-15T18:45:20.834Z,101464.88
2023-03-15T18:47:48.010Z,101467.00
2023-03-15T18:50:15.697Z,101473.16
2023-03-15T18:52:42.646Z,101470.84
2023-03-15T18:55:12.515Z,101482.41
2023-03-15T18:57:42.924Z,101473.41
2023-03-15T19:00:13.666Z,101468.97
2023-03-15T19:02:45.594Z,101467.78
2023-03-15T19:05:13.645Z,101475.69
2023-03-15T19:07:42.330Z,101476.16
2023-03-15T19:10:13.318Z,101476.34
2023-03-15T19:12:41.037Z,101478.81
2023-03-15T19:15:12.325Z,101482.13
2023-03-15T19:17:39.092Z,101488.66
2023-03-15T19:20:07.641Z,101486.47
2023-03-15T19:22:35.338Z,101491.69
2023-03-15T19:25:01.833Z,101482.06
2023-03-15T19:27:28.335Z,101489.41
2023-03-15T19:29:54.809Z,101492.25
2023-03-15T19:32:21.267Z,101486.63
2023-03-15T19:34:48.143Z,101495.97
2023-03-15T19:37:14.607Z,101499.75
2023-03-15T19:39:41.125Z,101497.34
2023-03-15T19:42:08.606Z,101486.06
2023-03-15T19:44:36.188Z,101499.06
2023-03-15T19:47:02.829Z,101505.03
2023-03-15T19:49:29.297Z,101508.13
2023-03-15T19:51:55.760Z,101516.19
2023-03-15T19:54:22.381Z,101508.56
2023-03-15T19:56:49.510Z,101508.28
2023-03-15T19:59:16.034Z,101517.81
2023-03-15T20:01:42.604Z,101524.72
2023-03-15T20:04:09.245Z,101534.09
2023-03-15T20:06:35.798Z,101525.16
2023-03-15T20:09:05.979Z,101519.31
2023-03-15T20:11:32.766Z,101525.75
2023-03-15T20:13:59.312Z,101533.78
2023-03-15T20:16:26.153Z,101533.19
2023-03-15T20:18:53.665Z,101540.16
2023-03-15T20:21:20.178Z,101533.94
2023-03-15T20:23:48.177Z,101542.44
2023-03-15T20:26:17.593Z,101547.38
2023-03-15T20:28:47.073Z,101553.03
2023-03-15T20:31:17.054Z,101552.53
2023-03-15T20:33:45.480Z,101559.63
2023-03-15T20:36:11.973Z,101548.81
2023-03-15T20:38:39.103Z,101560.94
2023-03-15T20:41:06.694Z,101550.19
2023-03-15T20:43:33.743Z,101564.13
2023-03-15T20:46:02.369Z,101567.53
2023-03-15T20:48:30.920Z,101553.22
2023-03-15T20:50:58.537Z,101563.78
2023-03-15T20:53:26.706Z,101569.16
2023-03-15T20:55:53.174Z,101561.72
2023-03-15T20:58:19.703Z,101571.41
2023-03-15T21:00:49.225Z,101567.66
2023-03-15T21:03:16.829Z,101564.19
2023-03-15T21:05:45.431Z,101570.00
2023-03-15T21:08:12.618Z,101563.75
2023-03-15T21:10:39.549Z,101568.63
2023-03-15T21:13:10.287Z,101579.09
2023-03-15T21:15:46.060Z,101562.25
2023-03-15T21:18:16.964Z,101564.50
2023-03-15T21:20:43.922Z,101567.22
2023-03-15T21:23:11.276Z,101570.00
2023-03-15T21:25:38.549Z,101572.09
2023-03-15T21:28:05.270Z,101575.16
2023-03-15T21:30:33.075Z,101575.16
2023-03-15T21:33:00.066Z,101578.03
2023-03-15T21:35:26.678Z,101573.78
2023-03-15T21:37:53.243Z,101575.63
2023-03-15T21:40:19.757Z,101572.66
2023-03-15T21:42:47.773Z,101580.16
2023-03-15T21:45:14.840Z,101584.19
2023-03-15T21:47:41.720Z,101580.78
2023-03-15T21:50:12.686Z,101576.59
2023-03-15T21:52:39.416Z,101585.16
2023-03-15T21:55:07.732Z,101579.44
2023-03-15T21:57:34.668Z,101591.69
2023-03-15T22:00:01.302Z,101589.75
2023-03-15T22:02:27.875Z,101577.56
2023-03-15T22:04:54.584Z,101587.97
2023-03-15T22:07:21.326Z,101597.16
2023-03-15T22:09:47.855Z,101593.78
2023-03-15T22:12:15.574Z,101606.38
2023-03-15T22:14:42.196Z,101596.97
2023-03-15T22:17:08.890Z,101601.59
2023-03-15T22:19:35.860Z,101603.94
2023-03-15T22:22:02.473Z,101607.25
2023-03-15T22:24:29.195Z,101602.31
2023-03-15T22:26:56.227Z,101607.25
2023-03-15T22:29:22.668Z,101611.19
2023-03-15T22:31:49.137Z,101610.94
2023-03-15T22:34:16.510Z,101623.94
2023-03-15T22:36:43.140Z,101620.38
2023-03-15T22:39:10.579Z,101611.59
2023-03-15T22:41:37.434Z,101628.59
2023-03-15T22:44:04.372Z,101626.13
2023-03-15T22:46:34.922Z,101629.41
2023-03-15T22:49:01.891Z,101625.34
2023-03-15T22:51:28.406Z,101636.44
2023-03-15T22:53:54.916Z,101629.81
2023-03-15T22:56:21.789Z,101630.50
2023-03-15T22:58:49.646Z,101638.38
2023-03-15T23:01:16.494Z,101642.47
2023-03-15T23:03:43.346Z,101638.59
2023-03-15T23:06:10.167Z,101644.66
2023-03-15T23:08:37.165Z,101642.31
2023-03-15T23:11:04.054Z,101649.84
2023-03-15T23:13:31.546Z,101647.19
2023-03-15T23:15:58.144Z,101646.53
2023-03-15T23:18:24.986Z,101650.81
2023-03-15T23:20:51.497Z,101656.69
2023-03-15T23:23:17.931Z,101665.13
2023-03-15T23:25:45.962Z,101662.28
2023-03-15T23:28:13.856Z,101664.25
2023-03-15T23:30:40.975Z,101671.19
2023-03-15T23:33:08.444Z,101676.91
2023-03-15T23:35:35.306Z,101676.88
2023-03-15T23:38:02.207Z,101675.97
2023-03-15T23:40:30.085Z,101673.13
2023-03-15T23:42:59.220Z,101675.81
2023-03-15T23:45:27.767Z,101683.63
2023-03-15T23:47:54.234Z,101686.75
2023-03-15T23:50:20.999Z,101695.13
2023-03-15T23:52:47.439Z,101694.38
2023-03-15T23:55:13.902Z,101686.38
2023-03-15T23:57:40.410Z,101694.16
